Terminal Aerodrome Forecast
Issued by NWS St Louis, MO

Home | Current Version | Previous Version | Text Only | Print | Product List | Glossary On
Versions: 1 2 3 4 5 6 7 8 9 10 11 12 13 14 15 16
000
FTUS43 KLSX 241200 AAA
TAFSTL
TAF AMD
KSTL 241256Z 2413/2518 29007KT P6SM -RA OVC035
     FM241400 29010KT P6SM OVC010
     FM241900 28012G18KT P6SM OVC015
     FM250000 26009KT P6SM OVC015
     FM250900 21006KT P6SM SCT020
     FM251500 19012KT P6SM SCT250=

USA.gov is the U.S. government's official web portal to all federal, state and local government web resources and services.